createdAt,value
2023-01-13T00:00:27.688Z,100693.88
2023-01-13T00:03:29.827Z,100681.19
2023-01-13T00:06:31.936Z,100680.44
2023-01-13T00:09:34.115Z,100683.47
2023-01-13T00:12:39.681Z,100686.75
2023-01-13T00:15:42.265Z,100670.78
2023-01-13T00:18:44.888Z,100673.25
2023-01-13T00:21:47.182Z,100686.03
2023-01-13T00:24:49.508Z,100668.38
2023-01-13T00:27:51.930Z,100664.63
2023-01-13T00:30:58.531Z,100658.59
2023-01-13T00:34:01.180Z,100672.47
2023-01-13T00:37:03.428Z,100663.88
2023-01-13T00:40:06.175Z,100665.09
2023-01-13T00:43:23.997Z,100658.97
2023-01-13T00:46:26.254Z,100666.19
2023-01-13T00:49:28.459Z,100672.63
2023-01-13T00:52:32.193Z,100666.00
2023-01-13T00:55:34.436Z,100673.94
2023-01-13T00:58:36.831Z,100670.50
2023-01-13T01:01:39.953Z,100666.47
2023-01-13T01:04:42.334Z,100665.81
2023-01-13T01:07:44.465Z,100661.44
2023-01-13T01:10:46.627Z,100663.00
2023-01-13T01:13:49.358Z,100658.72
2023-01-13T01:16:51.562Z,100648.47
2023-01-13T01:19:53.772Z,100644.38
2023-01-13T01:22:55.945Z,100658.81
2023-01-13T01:26:02.045Z,100643.38
2023-01-13T01:29:04.240Z,100651.16
2023-01-13T01:32:06.483Z,100641.25
2023-01-13T01:35:08.874Z,100641.75
2023-01-13T01:38:11.246Z,100640.81
2023-01-13T01:41:19.050Z,100617.97
2023-01-13T01:44:42.846Z,100638.91
2023-01-13T01:47:47.871Z,100612.97
2023-01-13T01:50:50.023Z,100624.19
2023-01-13T01:53:53.953Z,100639.00
2023-01-13T01:56:56.268Z,100609.75
2023-01-13T02:00:02.670Z,100603.56
2023-01-13T02:03:15.761Z,100597.16
2023-01-13T02:06:18.612Z,100612.69
2023-01-13T02:09:20.794Z,100598.06
2023-01-13T02:12:29.977Z,100615.25
2023-01-13T02:15:47.985Z,100622.38
2023-01-13T02:19:23.678Z,100627.28
2023-01-13T02:22:37.973Z,100617.22
2023-01-13T02:26:03.561Z,100608.53
2023-01-13T02:29:30.931Z,100616.06
2023-01-13T02:32:41.567Z,100610.41
2023-01-13T02:35:59.619Z,100601.72
2023-01-13T02:39:12.080Z,100600.69
2023-01-13T02:42:51.729Z,100602.25
2023-01-13T02:45:59.486Z,100598.88
2023-01-13T02:49:05.476Z,100590.47
2023-01-13T02:52:40.031Z,100567.91
2023-01-13T02:55:48.989Z,100586.53
2023-01-13T02:58:51.567Z,100573.03
2023-01-13T03:01:56.174Z,100588.38
2023-01-13T03:05:00.247Z,100586.44
2023-01-13T03:08:21.470Z,100590.09
2023-01-13T03:11:27.202Z,100569.13
2023-01-13T03:14:43.008Z,100578.50
2023-01-13T03:17:50.469Z,100557.56
2023-01-13T03:21:21.810Z,100577.56
2023-01-13T03:24:30.612Z,100552.69
2023-01-13T03:27:42.071Z,100578.13
2023-01-13T03:30:55.105Z,100569.38
2023-01-13T03:34:19.673Z,100578.22
2023-01-13T03:37:27.533Z,100569.19
2023-01-13T03:40:33.907Z,100565.88
2023-01-13T03:44:03.331Z,100541.59
2023-01-13T03:47:33.751Z,100543.53
2023-01-13T03:50:40.767Z,100557.41
2023-01-13T03:53:50.278Z,100558.81
2023-01-13T03:57:04.176Z,100560.50
2023-01-13T04:00:09.556Z,100567.94
2023-01-13T04:03:48.060Z,100560.41
2023-01-13T04:07:20.966Z,100568.44
2023-01-13T04:10:30.283Z,100566.09
2023-01-13T04:13:35.859Z,100571.00
2023-01-13T04:16:38.454Z,100560.19
2023-01-13T04:19:40.836Z,100548.47
2023-01-13T04:22:43.847Z,100566.09
2023-01-13T04:25:46.854Z,100567.13
2023-01-13T04:28:49.289Z,100554.56
2023-01-13T04:31:51.479Z,100561.13
2023-01-13T04:34:54.271Z,100584.31
2023-01-13T04:37:56.708Z,100578.47
2023-01-13T04:40:58.974Z,100575.97
2023-01-13T04:44:01.177Z,100553.03
2023-01-13T04:47:04.391Z,100569.34
2023-01-13T04:50:06.891Z,100558.00
2023-01-13T04:53:09.197Z,100560.25
2023-01-13T04:56:11.388Z,100564.91
2023-01-13T04:59:14.221Z,100569.53
2023-01-13T05:02:19.928Z,100549.16
2023-01-13T05:05:22.268Z,100574.28
2023-01-13T05:08:24.485Z,100554.38
2023-01-13T05:11:45.317Z,100581.28
2023-01-13T05:15:05.911Z,100584.34
2023-01-13T05:18:08.275Z,100566.06
2023-01-13T05:21:30.444Z,100584.09
2023-01-13T05:24:51.249Z,100588.84
2023-01-13T05:27:58.824Z,100598.94
2023-01-13T05:31:01.364Z,100592.28
2023-01-13T05:34:03.819Z,100584.53
2023-01-13T05:37:07.939Z,100572.63
2023-01-13T05:40:30.279Z,100591.16
2023-01-13T05:43:33.349Z,100575.94
2023-01-13T05:46:35.596Z,100574.97
2023-01-13T05:49:37.928Z,100590.47
2023-01-13T05:52:40.344Z,100595.25
2023-01-13T05:55:43.592Z,100596.31
2023-01-13T05:58:45.788Z,100597.53
2023-01-13T06:01:48.110Z,100591.09
2023-01-13T06:04:50.350Z,100597.84
2023-01-13T06:07:56.918Z,100582.31
2023-01-13T06:10:59.248Z,100591.97
2023-01-13T06:14:01.458Z,100596.16
2023-01-13T06:17:03.727Z,100584.84
2023-01-13T06:20:08.291Z,100577.06
2023-01-13T06:23:11.897Z,100605.06
2023-01-13T06:26:21.279Z,100600.25
2023-01-13T06:29:24.073Z,100600.75
2023-01-13T06:32:30.141Z,100600.25
2023-01-13T06:35:34.490Z,100569.75
2023-01-13T06:38:40.261Z,100576.56
2023-01-13T06:42:16.644Z,100595.88
2023-01-13T06:45:21.583Z,100608.78
2023-01-13T06:48:27.517Z,100602.09
2023-01-13T06:51:29.719Z,100588.31
2023-01-13T06:54:32.273Z,100606.50
2023-01-13T06:57:34.632Z,100614.13
2023-01-13T07:00:39.850Z,100622.63
2023-01-13T07:03:42.327Z,100600.31
2023-01-13T07:06:45.263Z,100615.69
2023-01-13T07:09:49.180Z,100610.16
2023-01-13T07:13:25.746Z,100619.22
2023-01-13T07:16:32.724Z,100605.66
2023-01-13T07:19:35.252Z,100576.03
2023-01-13T07:22:37.436Z,100599.31
2023-01-13T07:25:39.619Z,100613.91
2023-01-13T07:28:41.995Z,100622.97
2023-01-13T07:31:44.556Z,100600.91
2023-01-13T07:34:46.780Z,100612.53
2023-01-13T07:37:49.031Z,100608.88
2023-01-13T07:40:51.456Z,100618.34
2023-01-13T07:43:54.142Z,100622.44
2023-01-13T07:47:00.341Z,100635.09
2023-01-13T07:50:02.664Z,100624.66
2023-01-13T07:53:05.109Z,100616.78
2023-01-13T07:56:08.196Z,100631.13
2023-01-13T07:59:10.957Z,100627.03
2023-01-13T08:02:20.720Z,100619.84
2023-01-13T08:05:32.810Z,100599.03
2023-01-13T08:08:40.578Z,100596.16
2023-01-13T08:12:17.929Z,100582.88
2023-01-13T08:15:21.690Z,100652.78
2023-01-13T08:18:23.948Z,100641.25
2023-01-13T08:21:28.426Z,100665.66
2023-01-13T08:24:30.655Z,100643.75
2023-01-13T08:27:34.892Z,100660.16
2023-01-13T08:30:37.141Z,100656.44
2023-01-13T08:33:40.258Z,100648.03
2023-01-13T08:36:43.569Z,100662.63
2023-01-13T08:39:48.487Z,100665.00
2023-01-13T08:42:53.025Z,100660.75
2023-01-13T08:46:01.319Z,100670.44
2023-01-13T08:49:04.218Z,100678.22
2023-01-13T08:52:13.184Z,100664.16
2023-01-13T08:55:17.219Z,100683.72
2023-01-13T09:02:33.779Z,100685.41
2023-01-13T09:05:39.353Z,100663.44
2023-01-13T09:08:46.651Z,100644.03
2023-01-13T09:12:09.509Z,100685.75
2023-01-13T09:15:12.277Z,100646.16
2023-01-13T09:18:14.700Z,100676.31
2023-01-13T09:21:20.026Z,100658.56
2023-01-13T09:24:23.972Z,100651.81
2023-01-13T09:27:27.209Z,100680.56
2023-01-13T09:30:32.425Z,100660.50
2023-01-13T09:33:54.593Z,100669.50
2023-01-13T09:36:56.877Z,100678.03
2023-01-13T09:40:20.116Z,100665.75
2023-01-13T09:44:07.523Z,100660.78
2023-01-13T09:47:20.818Z,100668.25
2023-01-13T09:50:41.904Z,100667.94
2023-01-13T09:54:02.738Z,100672.19
2023-01-13T09:57:25.853Z,100640.66
2023-01-13T10:00:35.525Z,100666.88
2023-01-13T10:03:38.196Z,100654.69
2023-01-13T10:06:43.123Z,100614.56
2023-01-13T10:09:55.160Z,100643.88
2023-01-13T10:13:15.605Z,100657.75
2023-01-13T10:16:33.915Z,100656.91
2023-01-13T10:19:49.760Z,100657.91
2023-01-13T10:23:29.588Z,100654.75
2023-01-13T10:26:40.179Z,100655.00
2023-01-13T10:29:42.388Z,100667.66
2023-01-13T10:32:49.435Z,100664.13
2023-01-13T10:35:51.761Z,100664.00
2023-01-13T10:39:07.155Z,100644.13
2023-01-13T10:42:17.320Z,100650.25
2023-01-13T10:45:24.854Z,100637.44
2023-01-13T10:49:25.529Z,100634.06
2023-01-13T10:52:35.406Z,100603.38
2023-01-13T10:55:38.384Z,100622.63
2023-01-13T10:58:50.135Z,100572.19
2023-01-13T11:02:36.430Z,100597.94
2023-01-13T11:05:41.417Z,100556.69
2023-01-13T11:08:55.675Z,100551.19
2023-01-13T11:12:05.837Z,100532.50
2023-01-13T11:15:12.047Z,100608.13
2023-01-13T11:18:25.228Z,100573.69
2023-01-13T11:21:35.867Z,100587.47
2023-01-13T11:24:41.061Z,100563.59
2023-01-13T11:27:47.147Z,100574.38
2023-01-13T11:30:56.849Z,100578.03
2023-01-13T11:34:25.375Z,100565.56
2023-01-13T11:37:28.833Z,100554.44
2023-01-13T11:40:41.707Z,100565.00
2023-01-13T11:44:10.029Z,100578.75
2023-01-13T11:47:12.604Z,100573.84
2023-01-13T11:51:10.595Z,100569.16
2023-01-13T11:54:47.909Z,100566.47
2023-01-13T11:58:14.497Z,100560.50
2023-01-13T12:01:31.299Z,100508.44
2023-01-13T12:05:17.450Z,100531.81
2023-01-13T12:08:47.650Z,100525.28
2023-01-13T12:12:11.612Z,100523.16
2023-01-13T12:15:21.482Z,100524.13
2023-01-13T12:18:33.353Z,100508.78
2023-01-13T12:22:11.869Z,100496.75
2023-01-13T12:25:34.491Z,100498.97
2023-01-13T12:28:56.648Z,100493.06
2023-01-13T12:32:00.787Z,100490.16
2023-01-13T12:35:31.553Z,100495.28
2023-01-13T12:38:43.530Z,100488.34
2023-01-13T12:42:12.425Z,100502.47
2023-01-13T12:45:14.601Z,100514.84
2023-01-13T12:48:45.859Z,100519.03
2023-01-13T12:51:55.674Z,100514.25
2023-01-13T12:55:04.258Z,100512.47
2023-01-13T12:58:07.134Z,100503.06
2023-01-13T13:01:14.473Z,100473.63
2023-01-13T13:04:21.611Z,100482.22
2023-01-13T13:07:31.605Z,100498.00
2023-01-13T13:10:39.313Z,100495.78
2023-01-13T13:13:47.226Z,100502.56
2023-01-13T13:16:50.335Z,100518.13
2023-01-13T13:19:52.727Z,100521.50
2023-01-13T13:22:54.898Z,100510.09
2023-01-13T13:26:03.163Z,100521.06
2023-01-13T13:29:27.447Z,100513.38
2023-01-13T13:33:08.630Z,100521.75
2023-01-13T13:36:54.095Z,100519.75
2023-01-13T13:40:14.926Z,100499.22
2023-01-13T13:43:38.650Z,100514.41
2023-01-13T13:46:56.548Z,100498.00
2023-01-13T13:50:13.623Z,100493.91
2023-01-13T13:53:18.892Z,100518.06
2023-01-13T13:56:24.892Z,100496.91
2023-01-13T13:59:30.731Z,100506.31
2023-01-13T14:02:36.727Z,100510.22
2023-01-13T14:05:38.922Z,100506.97
2023-01-13T14:08:46.126Z,100522.16
2023-01-13T14:11:57.921Z,100534.59
2023-01-13T14:15:00.317Z,100520.63
2023-01-13T14:18:05.399Z,100523.16
2023-01-13T14:21:29.305Z,100538.72
2023-01-13T14:24:32.243Z,100536.44
2023-01-13T14:27:35.397Z,100523.09
2023-01-13T14:30:37.714Z,100526.00
2023-01-13T14:33:43.638Z,100533.34
2023-01-13T14:36:50.917Z,100529.09
2023-01-13T14:39:53.205Z,100510.84
2023-01-13T14:43:03.322Z,100519.66
2023-01-13T14:46:05.554Z,100529.69
2023-01-13T14:49:25.006Z,100531.47
2023-01-13T14:52:38.399Z,100535.31
2023-01-13T14:55:42.120Z,100538.00
2023-01-13T14:58:44.351Z,100534.47
2023-01-13T15:01:47.683Z,100525.78
2023-01-13T15:04:53.918Z,100524.19
2023-01-13T15:08:11.541Z,100532.22
2023-01-13T15:11:27.567Z,100526.69
2023-01-13T15:14:34.483Z,100524.63
2023-01-13T15:17:36.990Z,100517.41
2023-01-13T15:20:40.196Z,100530.00
2023-01-13T15:23:42.740Z,100512.09
2023-01-13T15:26:44.963Z,100513.00
2023-01-13T15:29:47.988Z,100516.28
2023-01-13T15:32:50.323Z,100497.34
2023-01-13T15:35:53.303Z,100526.00
2023-01-13T15:38:56.044Z,100531.69
2023-01-13T15:42:16.875Z,100528.44
2023-01-13T15:45:37.691Z,100529.56
2023-01-13T15:48:39.859Z,100515.94
2023-01-13T15:51:42.706Z,100536.91
2023-01-13T15:54:44.908Z,100535.13
2023-01-13T15:57:48.940Z,100528.31
2023-01-13T16:00:51.132Z,100539.47
2023-01-13T16:03:53.646Z,100551.56
2023-01-13T16:06:56.569Z,100554.69
2023-01-13T16:10:01.807Z,100539.28
2023-01-13T16:13:04.081Z,100555.31
2023-01-13T16:16:22.035Z,100551.66
2023-01-13T16:19:24.233Z,100544.06
2023-01-13T16:22:26.445Z,100544.25
2023-01-13T16:25:28.683Z,100547.19
2023-01-13T16:28:30.850Z,100524.16
2023-01-13T16:31:34.369Z,100546.94
2023-01-13T16:34:36.634Z,100539.50
2023-01-13T16:37:38.900Z,100511.41
2023-01-13T16:40:41.084Z,100525.38
2023-01-13T16:43:43.701Z,100540.94
2023-01-13T16:46:46.189Z,100549.63
2023-01-13T16:49:48.402Z,100544.53
2023-01-13T16:52:50.643Z,100530.78
2023-01-13T16:55:52.881Z,100516.22
2023-01-13T16:58:57.707Z,100526.75
2023-01-13T17:02:01.928Z,100520.16
2023-01-13T17:05:04.760Z,100508.97
2023-01-13T17:08:07.161Z,100520.00
2023-01-13T17:11:10.332Z,100540.94
2023-01-13T17:14:18.609Z,100530.69
2023-01-13T17:17:24.338Z,100506.88
2023-01-13T17:20:26.598Z,100524.19
2023-01-13T17:23:29.802Z,100523.53
2023-01-13T17:26:37.195Z,100529.47
2023-01-13T17:29:39.664Z,100544.47
2023-01-13T17:32:42.159Z,100527.31
2023-01-13T17:35:46.027Z,100544.81
2023-01-13T17:38:48.268Z,100543.72
2023-01-13T17:41:51.351Z,100540.25
2023-01-13T17:44:54.420Z,100539.06
2023-01-13T17:48:00.041Z,100533.53
2023-01-13T17:51:03.525Z,100562.19
2023-01-13T17:54:05.865Z,100554.38
2023-01-13T17:57:08.109Z,100562.56
2023-01-13T18:00:12.470Z,100566.56
2023-01-13T18:03:15.897Z,100564.00
2023-01-13T18:06:21.467Z,100562.44
2023-01-13T18:09:26.798Z,100548.44
2023-01-13T18:12:29.067Z,100572.41
2023-01-13T18:15:31.479Z,100553.38
2023-01-13T18:18:35.234Z,100563.22
2023-01-13T18:21:56.178Z,100581.28
2023-01-13T18:25:16.788Z,100565.50
2023-01-13T18:28:19.083Z,100573.47
2023-01-13T18:31:21.362Z,100571.16
2023-01-13T18:34:23.627Z,100580.56
2023-01-13T18:37:26.626Z,100571.19
2023-01-13T18:40:28.831Z,100571.38
2023-01-13T18:43:33.280Z,100585.94
2023-01-13T18:46:35.729Z,100579.94
2023-01-13T18:49:37.967Z,100591.16
2023-01-13T18:52:41.321Z,100584.53
2023-01-13T18:55:43.544Z,100552.75
2023-01-13T18:58:51.973Z,100571.56
2023-01-13T19:01:54.330Z,100577.59
2023-01-13T19:04:57.217Z,100592.25
2023-01-13T19:07:59.740Z,100584.19
2023-01-13T19:11:05.938Z,100600.28
2023-01-13T19:14:08.798Z,100601.44
2023-01-13T19:17:13.941Z,100579.06
2023-01-13T19:20:16.553Z,100591.41
2023-01-13T19:23:19.476Z,100589.03
2023-01-13T19:26:21.850Z,100594.69
2023-01-13T19:29:24.218Z,100595.84
2023-01-13T19:32:27.508Z,100600.75
2023-01-13T19:35:29.775Z,100613.50
2023-01-13T19:38:32.226Z,100615.56
2023-01-13T19:41:53.056Z,100597.81
2023-01-13T19:45:14.138Z,100623.53
2023-01-13T19:48:16.737Z,100622.94
2023-01-13T19:51:19.033Z,100626.97
2023-01-13T19:54:21.349Z,100627.72
2023-01-13T19:57:27.496Z,100635.97
2023-01-13T20:00:29.713Z,100640.13
2023-01-13T20:03:35.859Z,100660.50
2023-01-13T20:06:38.135Z,100685.03
2023-01-13T20:09:43.365Z,100677.25
2023-01-13T20:12:45.657Z,100698.13
2023-01-13T20:15:48.044Z,100675.31
2023-01-13T20:18:51.401Z,100665.44
2023-01-13T20:21:53.603Z,100635.34
2023-01-13T20:24:55.895Z,100669.56
2023-01-13T20:27:58.763Z,100630.78
2023-01-13T20:31:01.049Z,100645.25
2023-01-13T20:34:03.311Z,100661.47
2023-01-13T20:37:05.699Z,100646.69
2023-01-13T20:40:09.606Z,100609.81
2023-01-13T20:43:11.871Z,100643.97
2023-01-13T20:46:14.079Z,100638.16
2023-01-13T20:49:16.403Z,100625.66
2023-01-13T20:52:18.680Z,100640.41
2023-01-13T20:55:21.219Z,100623.41
2023-01-13T20:58:23.403Z,100639.19
2023-01-13T21:01:26.597Z,100610.97
2023-01-13T21:04:29.046Z,100653.59
2023-01-13T21:07:31.289Z,100663.09
2023-01-13T21:10:33.460Z,100676.69
2023-01-13T21:13:54.163Z,100675.94
2023-01-13T21:16:56.388Z,100665.50
2023-01-13T21:19:59.160Z,100655.53
2023-01-13T21:23:02.401Z,100649.81
2023-01-13T21:26:05.242Z,100652.88
2023-01-13T21:29:07.603Z,100646.94
2023-01-13T21:32:12.910Z,100611.44
2023-01-13T21:35:15.284Z,100631.09
2023-01-13T21:38:17.506Z,100611.81
2023-01-13T21:41:40.228Z,100627.81
2023-01-13T21:45:00.957Z,100616.69
2023-01-13T21:48:03.304Z,100631.91
2023-01-13T21:51:05.799Z,100624.13
2023-01-13T21:54:07.997Z,100625.06
2023-01-13T21:57:10.314Z,100595.63
2023-01-13T22:00:13.117Z,100611.97
2023-01-13T22:03:15.360Z,100596.81
2023-01-13T22:06:17.626Z,100573.56
2023-01-13T22:09:19.871Z,100578.41
2023-01-13T22:12:24.427Z,100578.50
2023-01-13T22:15:29.132Z,100599.66
2023-01-13T22:18:31.274Z,100631.66
2023-01-13T22:21:33.969Z,100641.97
2023-01-13T22:24:39.025Z,100651.72
2023-01-13T22:27:44.371Z,100678.56
2023-01-13T22:30:49.739Z,100694.41
2023-01-13T22:33:55.568Z,100706.66
2023-01-13T22:36:58.143Z,100719.41
2023-01-13T22:40:00.407Z,100711.50
2023-01-13T22:43:02.722Z,100723.56
2023-01-13T22:46:10.574Z,100726.56
2023-01-13T22:49:13.689Z,100726.63
2023-01-13T22:52:17.215Z,100714.25
2023-01-13T22:55:19.442Z,100729.84
2023-01-13T22:58:21.783Z,100709.72
2023-01-13T23:01:25.996Z,100728.38
2023-01-13T23:04:29.203Z,100717.69
2023-01-13T23:07:31.455Z,100707.25
2023-01-13T23:10:33.912Z,100713.50
2023-01-13T23:13:38.108Z,100684.53
2023-01-13T23:16:40.861Z,100689.13
2023-01-13T23:19:43.272Z,100681.38
2023-01-13T23:22:45.973Z,100662.50
2023-01-13T23:25:53.639Z,100644.66
2023-01-13T23:29:02.999Z,100625.22
2023-01-13T23:32:05.557Z,100638.22
2023-01-13T23:35:09.058Z,100648.44
2023-01-13T23:38:11.373Z,100652.72
2023-01-13T23:41:16.160Z,100639.63
2023-01-13T23:44:18.355Z,100612.41
2023-01-13T23:47:20.543Z,100630.13
2023-01-13T23:50:22.790Z,100627.91
2023-01-13T23:53:31.030Z,100637.88
2023-01-13T23:56:34.811Z,100630.81
2023-01-13T23:59:37.011Z,100642.84
